»·PEaware :: WAT169 KRNO-KSNA

WAT169 :: KRNO-KSNA

FLIGHT INFORMATION

Flight Status: Arrived
Operator:
Walker Air Transport
More flights by this operator :: More flights under this callsign
Pilot: Marty P. (27464)
Aircraft: BOEING 737-800
(B738)
More flights by this aircraft type
Origin: KRNO Reno/Tahoe Intl
United States
Destination: KSNA John Wayne-Orange Co
United States
More flights between these airports :: More routes between these airports
Route: ZEFFR6 DARBI FRA J7 REBRG OHSEA2
File this flight plan on PilotEdge
Remarks:
Altitude:
(Current/Filed)
34,000ft
Speed:
(Current/Filed)
530kts
Departed: 10-Jan-21 11:09 AM
Arrived: 10-Jan-21 12:11 PM
Distance/Time
Traveled:
361nm/1:01
Distance/Time
To Go:
Arrived

Flight Plot

Page will automatically refresh every two minutes.

Flight plan parsing failed; only flown route is shown


Map Options




Map Legend


Flown Route
Filed Route
Departure Airport
Arrival Airport
Navaid (VOR, NDB)
Fix

Horizontal Profiles

Position Reports

Time Latitude Longitude Heading Altitude Ground
Speed
10-Jan-21 10:46 39.504399 -119.774244 13 4425ft 0kts
10-Jan-21 10:47 39.504399 -119.774244 13 4425ft 0kts
10-Jan-21 10:48 39.504399 -119.774244 13 4425ft 0kts
10-Jan-21 10:49 39.504399 -119.774244 13 4425ft 0kts
10-Jan-21 10:50 39.504399 -119.774244 13 4425ft 0kts
10-Jan-21 10:51 39.504399 -119.774244 13 4425ft 0kts
10-Jan-21 10:52 39.504399 -119.774244 13 4425ft 0kts
10-Jan-21 10:53 39.504399 -119.774244 13 4425ft 0kts
10-Jan-21 10:54 39.504399 -119.774244 13 4425ft 0kts
10-Jan-21 10:55 39.504399 -119.774244 13 4425ft 0kts
10-Jan-21 10:56 39.504399 -119.774244 13 4425ft 0kts
10-Jan-21 10:57 39.504399 -119.774244 13 4425ft 0kts
10-Jan-21 10:58 39.504394 -119.774245 12 4425ft 0kts
10-Jan-21 10:58 39.504053 -119.774420 11 4425ft 2kts
10-Jan-21 10:59 39.503576 -119.774467 358 4425ft 1kts
10-Jan-21 11:00 39.503742 -119.772709 89 4425ft 7kts
10-Jan-21 11:02 39.503741 -119.772258 89 4425ft 0kts
10-Jan-21 11:03 39.503743 -119.771832 85 4425ft 5kts
10-Jan-21 11:03 39.505607 -119.771511 359 4425ft 14kts
10-Jan-21 11:04 39.510859 -119.771492 0 4425ft 18kts
10-Jan-21 11:05 39.513745 -119.770490 90 4425ft 0kts
10-Jan-21 11:06 39.513745 -119.770490 90 4425ft 0kts
10-Jan-21 11:07 39.513668 -119.769596 116 4425ft 13kts
10-Jan-21 11:08 39.483700 -119.768882 175 4982ft 182kts
10-Jan-21 11:09 39.425565 -119.769103 182 7125ft 253kts
10-Jan-21 11:10 39.352987 -119.769040 182 10824ft 281kts
10-Jan-21 11:11 39.261625 -119.767590 181 12748ft 363kts
10-Jan-21 11:12 39.157326 -119.763630 182 15850ft 388kts
10-Jan-21 11:13 39.046967 -119.759461 183 18610ft 409kts
10-Jan-21 11:14 38.931822 -119.755136 183 21110ft 425kts
10-Jan-21 11:15 38.811323 -119.750623 183 23324ft 440kts
10-Jan-21 11:16 38.687141 -119.745995 183 25247ft 455kts
10-Jan-21 11:17 38.559363 -119.741246 182 26865ft 471kts
10-Jan-21 11:18 38.427099 -119.736339 182 28323ft 486kts
10-Jan-21 11:19 38.290078 -119.730280 179 29607ft 503kts
10-Jan-21 11:20 38.149598 -119.714344 178 30902ft 513kts
10-Jan-21 11:21 38.007769 -119.697965 177 32649ft 508kts
10-Jan-21 11:22 37.869355 -119.682044 178 34342ft 501kts
10-Jan-21 11:23 37.729190 -119.666034 178 34970ft 509kts
10-Jan-21 11:24 37.588358 -119.649998 179 35341ft 521kts
10-Jan-21 11:25 37.443606 -119.633566 179 35338ft 531kts
10-Jan-21 11:26 37.297187 -119.616986 179 35337ft 533kts
10-Jan-21 11:27 37.149748 -119.600360 180 35350ft 533kts
10-Jan-21 11:28 37.003344 -119.597793 186 35356ft 525kts
10-Jan-21 11:29 36.860524 -119.599826 187 35356ft 523kts
10-Jan-21 11:30 36.716331 -119.602212 187 35356ft 521kts
10-Jan-21 11:31 36.572046 -119.604671 187 35360ft 518kts
10-Jan-21 11:32 36.428450 -119.607127 188 35365ft 516kts
10-Jan-21 11:33 36.285850 -119.609570 188 35365ft 515kts
10-Jan-21 11:34 36.143007 -119.612006 188 35365ft 514kts
10-Jan-21 11:35 36.002427 -119.615945 193 35364ft 508kts
10-Jan-21 11:36 35.864830 -119.639621 196 35373ft 502kts
10-Jan-21 11:37 35.727282 -119.666770 197 35363ft 501kts
10-Jan-21 11:38 35.586229 -119.640060 163 35362ft 540kts
10-Jan-21 11:39 35.448388 -119.564350 162 35357ft 543kts
10-Jan-21 11:40 35.311088 -119.488770 162 35311ft 543kts
10-Jan-21 11:41 35.174282 -119.413682 162 35310ft 543kts
10-Jan-21 11:42 35.043896 -119.342120 163 35110ft 487kts
10-Jan-21 11:43 34.917938 -119.273608 163 33133ft 500kts
10-Jan-21 11:44 34.790580 -119.204443 162 30603ft 506kts
10-Jan-21 11:45 34.663467 -119.129257 157 28805ft 517kts
10-Jan-21 11:46 34.542655 -119.052182 157 28193ft 461kts
10-Jan-21 11:47 34.434536 -118.982112 155 25097ft 431kts
10-Jan-21 11:48 34.332144 -118.914094 153 22063ft 411kts
10-Jan-21 11:49 34.233140 -118.851494 160 20294ft 390kts
10-Jan-21 11:50 34.131392 -118.807841 162 18035ft 390kts
10-Jan-21 11:51 34.029865 -118.767454 163 17012ft 384kts
10-Jan-21 11:52 33.928145 -118.728074 163 16095ft 380kts
10-Jan-21 11:53 33.829268 -118.689912 164 14150ft 370kts
10-Jan-21 11:54 33.733558 -118.653210 165 13006ft 363kts
10-Jan-21 11:55 33.642565 -118.621213 164 12691ft 323kts
10-Jan-21 11:56 33.572425 -118.559344 123 10833ft 311kts
10-Jan-21 11:57 33.529033 -118.474775 108 8805ft 286kts
10-Jan-21 11:58 33.519514 -118.383564 90 6348ft 272kts
10-Jan-21 11:59 33.529698 -118.295926 68 5024ft 261kts
10-Jan-21 12:00 33.556278 -118.213226 68 5017ft 269kts
10-Jan-21 12:01 33.591596 -118.134552 55 5011ft 268kts
10-Jan-21 12:02 33.633026 -118.060492 56 5009ft 269kts
10-Jan-21 12:03 33.673130 -117.988384 56 5006ft 239kts
10-Jan-21 12:04 33.711440 -117.936520 30 4543ft 193kts
10-Jan-21 12:05 33.758832 -117.906920 27 3854ft 195kts
10-Jan-21 12:06 33.790774 -117.867912 81 2892ft 162kts
10-Jan-21 12:07 33.770135 -117.826557 163 1878ft 157kts
10-Jan-21 12:08 33.729005 -117.834777 207 1099ft 156kts
10-Jan-21 12:09 33.691036 -117.859093 207 283ft 153kts
10-Jan-21 12:10 33.669451 -117.871959 141 66ft 14kts
10-Jan-21 12:11 33.669154 -117.871561 121 66ft 0kts
10-Jan-21 12:12 33.671396 -117.868621 32 66ft 18kts
10-Jan-21 12:13 33.675124 -117.865831 27 66ft 14kts
10-Jan-21 12:14 33.675015 -117.865100 117 66ft 0kts
10-Jan-21 12:15 33.675015 -117.865100 117 66ft 0kts

Navigation Log

Ident Type
Flight plan parsing failed, navigation log unavailable